createdAt,value
2022-11-20T00:01:21.635Z,0.33
2022-11-20T00:03:48.568Z,0.35
2022-11-20T00:06:17.642Z,0.38
2022-11-20T00:08:44.307Z,0.35
2022-11-20T00:11:16.003Z,0.34
2022-11-20T00:13:43.965Z,0.35
2022-11-20T00:16:11.864Z,0.22
2022-11-20T00:18:38.314Z,0.32
2022-11-20T00:21:07.329Z,0.32
2022-11-20T00:23:33.742Z,0.33
2022-11-20T00:26:08.371Z,0.35
2022-11-20T00:28:35.275Z,0.37
2022-11-20T00:31:10.472Z,0.36
2022-11-20T00:33:36.877Z,0.41
2022-11-20T00:36:09.075Z,0.39
2022-11-20T00:38:36.211Z,0.43
2022-11-20T00:41:08.116Z,0.42
2022-11-20T00:43:34.930Z,0.35
2022-11-20T00:46:13.003Z,0.33
2022-11-20T00:48:39.381Z,0.35
2022-11-20T00:51:05.979Z,0.39
2022-11-20T00:53:32.876Z,0.43
2022-11-20T00:56:02.266Z,0.42
2022-11-20T00:58:36.899Z,0.42
2022-11-20T01:01:04.532Z,0.38
2022-11-20T01:03:35.471Z,0.32
2022-11-20T01:06:26.493Z,0.32
2022-11-20T01:08:55.681Z,0.35
2022-11-20T01:11:33.503Z,0.38
2022-11-20T01:14:01.889Z,0.36
2022-11-20T01:16:33.431Z,0.38
2022-11-20T01:19:01.770Z,0.34
2022-11-20T01:21:34.429Z,0.26
2022-11-20T01:24:01.068Z,0.29
2022-11-20T01:26:30.358Z,0.31
2022-11-20T01:28:57.480Z,0.26
2022-11-20T01:31:27.086Z,0.24
2022-11-20T01:33:57.354Z,0.28
2022-11-20T01:36:25.798Z,0.18
2022-11-20T01:38:54.038Z,0.21
2022-11-20T01:41:39.141Z,0.14
2022-11-20T01:44:05.768Z,0.14
2022-11-20T01:46:39.286Z,0.14
2022-11-20T01:49:10.730Z,-0.08
2022-11-20T01:51:47.066Z,-0.12
2022-11-20T01:54:19.796Z,-0.06
2022-11-20T01:56:49.045Z,-0.01
2022-11-20T01:59:18.863Z,0.03
2022-11-20T02:01:45.660Z,0.00
2022-11-20T02:04:14.488Z,-0.16
2022-11-20T02:06:49.247Z,-0.12
2022-11-20T02:09:16.517Z,-0.24
2022-11-20T02:11:43.051Z,-0.15
2022-11-20T02:14:10.432Z,-0.10
2022-11-20T02:16:41.216Z,-0.18
2022-11-20T02:19:14.658Z,-0.15
2022-11-20T02:21:54.010Z,-0.10
2022-11-20T02:24:22.433Z,-0.13
2022-11-20T02:26:54.859Z,-0.12
2022-11-20T02:29:28.701Z,-0.10
2022-11-20T02:31:56.224Z,-0.08
2022-11-20T02:34:22.624Z,-0.05
2022-11-20T02:36:51.736Z,-0.16
2022-11-20T02:39:20.317Z,-0.10
2022-11-20T02:41:47.445Z,-0.07
2022-11-20T02:44:13.783Z,-0.01
2022-11-20T02:46:40.369Z,-0.05
2022-11-20T02:49:06.722Z,-0.04
2022-11-20T02:51:33.306Z,-0.10
2022-11-20T02:53:59.645Z,-0.12
2022-11-20T02:56:26.592Z,-0.10
2022-11-20T02:58:53.724Z,-0.07
2022-11-20T03:01:20.166Z,-0.10
2022-11-20T03:03:46.561Z,-0.11
2022-11-20T03:06:12.841Z,-0.06
2022-11-20T03:08:39.142Z,-0.06
2022-11-20T03:11:07.988Z,-0.05
2022-11-20T03:13:35.143Z,-0.17
2022-11-20T03:16:09.381Z,-0.25
2022-11-20T03:18:35.932Z,-0.27
2022-11-20T03:21:02.250Z,-0.25
2022-11-20T03:23:31.659Z,-0.24
2022-11-20T03:26:17.997Z,-0.12
2022-11-20T03:28:50.140Z,-0.11
2022-11-20T03:31:17.564Z,-0.15
2022-11-20T03:33:44.225Z,-0.18
2022-11-20T03:36:13.645Z,-0.27
2022-11-20T03:38:41.090Z,-0.27
2022-11-20T03:41:15.591Z,-0.17
2022-11-20T03:43:42.443Z,-0.19
2022-11-20T03:46:09.132Z,-0.13
2022-11-20T03:48:45.366Z,-0.20
2022-11-20T03:51:20.599Z,-0.18
2022-11-20T03:53:48.752Z,-0.18
2022-11-20T03:56:17.370Z,-0.27
2022-11-20T03:58:44.376Z,-0.24
2022-11-20T04:01:14.137Z,-0.17
2022-11-20T04:03:41.945Z,-0.18
2022-11-20T04:06:17.791Z,-0.20
2022-11-20T04:08:46.618Z,-0.31
2022-11-20T04:11:17.557Z,-0.36
2022-11-20T04:13:47.777Z,-0.33
2022-11-20T04:16:14.921Z,-0.39
2022-11-20T04:18:41.234Z,-0.27
2022-11-20T04:21:07.645Z,-0.28
2022-11-20T04:23:34.573Z,-0.27
2022-11-20T04:26:09.721Z,-0.28
2022-11-20T04:28:36.528Z,-0.34
2022-11-20T04:31:08.575Z,-0.32
2022-11-20T04:33:35.938Z,-0.27
2022-11-20T04:36:11.988Z,-0.27
2022-11-20T04:38:38.690Z,-0.27
2022-11-20T04:41:07.432Z,-0.29
2022-11-20T04:43:35.031Z,-0.28
2022-11-20T04:46:02.052Z,-0.31
2022-11-20T04:48:30.307Z,-0.22
2022-11-20T04:50:56.725Z,-0.27
2022-11-20T04:53:23.828Z,-0.24
2022-11-20T04:55:50.360Z,-0.20
2022-11-20T04:58:17.392Z,-0.18
2022-11-20T05:00:43.719Z,-0.19
2022-11-20T05:03:10.184Z,-0.24
2022-11-20T05:05:36.582Z,-0.26
2022-11-20T05:08:05.626Z,-0.22
2022-11-20T05:10:32.001Z,-0.32
2022-11-20T05:12:58.508Z,-0.33
2022-11-20T05:15:25.211Z,-0.38
2022-11-20T05:17:53.093Z,-0.29
2022-11-20T05:20:19.855Z,-0.25
2022-11-20T05:22:46.316Z,-0.26
2022-11-20T05:25:13.075Z,-0.42
2022-11-20T05:27:39.373Z,-0.34
2022-11-20T05:30:06.942Z,-0.35
2022-11-20T05:32:33.301Z,-0.40
2022-11-20T05:34:59.678Z,-0.37
2022-11-20T05:37:26.100Z,-0.31
2022-11-20T05:39:52.673Z,-0.31
2022-11-20T05:42:31.115Z,-0.28
2022-11-20T05:45:02.245Z,-0.29
2022-11-20T05:47:33.311Z,-0.25
2022-11-20T05:50:00.009Z,-0.30
2022-11-20T05:52:30.109Z,-0.31
2022-11-20T05:54:56.923Z,-0.40
2022-11-20T05:57:23.291Z,-0.35
2022-11-20T05:59:49.632Z,-0.34
2022-11-20T06:02:16.160Z,-0.33
2022-11-20T06:04:42.529Z,-0.29
2022-11-20T06:07:08.945Z,-0.27
2022-11-20T06:09:35.306Z,-0.29
2022-11-20T06:12:01.688Z,-0.27
2022-11-20T06:14:28.080Z,-0.28
2022-11-20T06:16:54.418Z,-0.34
2022-11-20T06:19:20.979Z,-0.29
2022-11-20T06:21:49.843Z,-0.27
2022-11-20T06:24:16.380Z,-0.34
2022-11-20T06:26:42.817Z,-0.30
2022-11-20T06:29:09.254Z,-0.33
2022-11-20T06:31:38.481Z,-0.28
2022-11-20T06:34:08.077Z,-0.30
2022-11-20T06:36:34.525Z,-0.24
2022-11-20T06:39:01.463Z,-0.37
2022-11-20T06:41:28.862Z,-0.36
2022-11-20T06:43:55.436Z,-0.28
2022-11-20T06:46:22.234Z,-0.24
2022-11-20T06:48:49.705Z,-0.39
2022-11-20T06:51:16.348Z,-0.46
2022-11-20T06:53:42.659Z,-0.48
2022-11-20T06:56:09.370Z,-0.46
2022-11-20T06:58:37.181Z,-0.55
2022-11-20T07:01:06.657Z,-0.65
2022-11-20T07:03:33.327Z,-0.64
2022-11-20T07:06:01.484Z,-0.63
2022-11-20T07:08:27.954Z,-0.54
2022-11-20T07:10:58.735Z,-0.53
2022-11-20T07:13:25.098Z,-0.70
2022-11-20T07:15:51.690Z,-0.63
2022-11-20T07:18:17.953Z,-0.49
2022-11-20T07:20:44.332Z,-0.40
2022-11-20T07:23:10.649Z,-0.38
2022-11-20T07:25:36.962Z,-0.35
2022-11-20T07:28:03.291Z,-0.34
2022-11-20T07:30:29.669Z,-0.32
2022-11-20T07:32:57.387Z,-0.33
2022-11-20T07:35:24.939Z,-0.30
2022-11-20T07:37:51.453Z,-0.26
2022-11-20T07:40:18.436Z,-0.14
2022-11-20T07:42:52.428Z,-0.20
2022-11-20T07:45:20.181Z,-0.17
2022-11-20T07:47:46.554Z,-0.22
2022-11-20T07:50:13.251Z,-0.24
2022-11-20T07:52:39.957Z,-0.26
2022-11-20T07:55:07.211Z,-0.35
2022-11-20T07:57:33.502Z,-0.31
2022-11-20T07:59:59.940Z,-0.32
2022-11-20T08:02:26.345Z,-0.25
2022-11-20T08:04:52.647Z,-0.22
2022-11-20T08:07:19.041Z,-0.17
2022-11-20T08:09:45.359Z,-0.24
2022-11-20T08:12:38.700Z,-0.21
2022-11-20T08:15:11.351Z,-0.23
2022-11-20T08:17:39.332Z,-0.39
2022-11-20T08:20:05.985Z,-0.23
2022-11-20T08:22:32.971Z,-0.18
2022-11-20T08:24:59.297Z,-0.12
2022-11-20T08:27:26.133Z,-0.16
2022-11-20T08:29:52.757Z,-0.14
2022-11-20T08:32:19.100Z,-0.26
2022-11-20T08:34:45.381Z,-0.25
2022-11-20T08:37:11.753Z,-0.22
2022-11-20T08:39:38.081Z,-0.19
2022-11-20T08:42:08.525Z,-0.22
2022-11-20T08:44:34.975Z,-0.23
2022-11-20T08:47:01.622Z,-0.15
2022-11-20T08:49:27.983Z,-0.11
2022-11-20T08:51:55.993Z,-0.07
2022-11-20T08:54:23.438Z,0.01
2022-11-20T08:56:49.769Z,0.02
2022-11-20T08:59:27.311Z,0.01
2022-11-20T09:02:02.476Z,-0.04
2022-11-20T09:04:29.409Z,-0.07
2022-11-20T09:06:55.823Z,-0.13
2022-11-20T09:09:22.418Z,-0.09
2022-11-20T09:11:50.757Z,-0.11
2022-11-20T09:14:17.069Z,-0.06
2022-11-20T09:16:45.293Z,-0.03
2022-11-20T09:19:41.056Z,-0.04
2022-11-20T09:21:59.860Z,-0.03
2022-11-20T09:24:27.425Z,-0.20
2022-11-20T09:26:53.710Z,-0.20
2022-11-20T09:29:20.397Z,-0.16
2022-11-20T09:31:46.881Z,-0.24
2022-11-20T09:34:13.165Z,-0.23
2022-11-20T09:36:39.470Z,-0.27
2022-11-20T09:39:05.767Z,-0.33
2022-11-20T09:41:39.168Z,-0.19
2022-11-20T09:44:37.281Z,-0.15
2022-11-20T09:47:28.253Z,-0.11
2022-11-20T09:50:03.795Z,-0.04
2022-11-20T09:52:42.255Z,-0.06
2022-11-20T09:55:12.686Z,-0.17
2022-11-20T09:57:44.217Z,-0.17
2022-11-20T10:00:14.125Z,-0.09
2022-11-20T10:02:43.802Z,-0.14
2022-11-20T10:05:24.081Z,-0.12
2022-11-20T10:08:02.365Z,-0.02
2022-11-20T10:10:52.493Z,0.05
2022-11-20T10:13:44.169Z,0.05
2022-11-20T10:16:21.007Z,0.01
2022-11-20T10:18:54.194Z,0.03
2022-11-20T10:21:36.874Z,0.26
2022-11-20T10:24:38.714Z,0.20
2022-11-20T10:27:04.949Z,0.27
2022-11-20T10:29:37.336Z,0.27
2022-11-20T10:32:11.248Z,0.11
2022-11-20T10:35:03.439Z,0.01
2022-11-20T10:37:33.408Z,0.02
2022-11-20T10:40:18.354Z,-0.04
2022-11-20T10:42:52.260Z,-0.02
2022-11-20T10:45:24.684Z,0.06
2022-11-20T10:47:54.174Z,0.12
2022-11-20T10:50:22.966Z,0.24
2022-11-20T10:53:06.620Z,0.38
2022-11-20T10:55:54.779Z,0.39
2022-11-20T10:58:53.678Z,0.50
2022-11-20T11:01:25.038Z,0.53
2022-11-20T11:03:56.344Z,0.49
2022-11-20T11:06:31.680Z,0.47
2022-11-20T11:09:01.903Z,0.40
2022-11-20T11:11:34.231Z,0.31
2022-11-20T11:14:15.547Z,0.38
2022-11-20T11:16:55.128Z,0.35
2022-11-20T11:19:22.173Z,0.51
2022-11-20T11:21:56.198Z,0.55
2022-11-20T11:24:42.588Z,0.63
2022-11-20T11:27:17.927Z,0.47
2022-11-20T11:29:45.326Z,0.42
2022-11-20T11:32:18.666Z,0.43
2022-11-20T11:34:45.396Z,0.59
2022-11-20T11:37:22.293Z,0.47
2022-11-20T11:39:55.080Z,0.60
2022-11-20T11:42:31.126Z,0.57
2022-11-20T11:45:06.138Z,0.63
2022-11-20T11:47:46.536Z,0.70
2022-11-20T11:50:12.834Z,0.56
2022-11-20T11:52:52.035Z,0.69
2022-11-20T11:55:33.904Z,0.58
2022-11-20T11:58:42.743Z,0.64
2022-11-20T12:01:18.320Z,0.58
2022-11-20T12:04:09.731Z,0.64
2022-11-20T12:06:39.889Z,0.77
2022-11-20T12:09:10.890Z,0.85
2022-11-20T12:11:47.678Z,0.78
2022-11-20T12:14:27.720Z,0.71
2022-11-20T12:16:56.529Z,0.87
2022-11-20T12:19:23.089Z,0.89
2022-11-20T12:22:08.033Z,0.86
2022-11-20T12:24:45.099Z,0.93
2022-11-20T12:27:33.074Z,0.93
2022-11-20T12:30:14.926Z,0.86
2022-11-20T12:33:14.705Z,0.94
2022-11-20T12:36:05.233Z,1.16
2022-11-20T12:38:52.710Z,0.93
2022-11-20T12:41:38.919Z,0.83
2022-11-20T12:44:36.003Z,0.75
2022-11-20T12:47:24.938Z,0.78
2022-11-20T12:50:09.839Z,0.79
2022-11-20T12:52:47.741Z,0.79
2022-11-20T12:55:22.102Z,0.77
2022-11-20T12:57:57.895Z,0.84
2022-11-20T13:00:25.756Z,0.77
2022-11-20T13:03:01.229Z,0.96
2022-11-20T13:05:37.822Z,1.10
2022-11-20T13:08:05.483Z,1.15
2022-11-20T13:10:46.925Z,1.24
2022-11-20T13:13:40.610Z,1.30
2022-11-20T13:16:39.410Z,1.29
2022-11-20T13:19:10.149Z,1.36
2022-11-20T13:21:42.683Z,1.43
2022-11-20T13:24:27.118Z,1.31
2022-11-20T13:27:19.633Z,1.38
2022-11-20T13:29:47.731Z,1.51
2022-11-20T13:32:14.006Z,1.60
2022-11-20T13:34:40.923Z,1.52
2022-11-20T13:37:27.489Z,1.58
2022-11-20T13:39:53.787Z,1.48
2022-11-20T13:42:28.948Z,1.45
2022-11-20T13:45:01.652Z,1.34
2022-11-20T13:47:29.223Z,1.28
2022-11-20T13:50:00.208Z,1.31
2022-11-20T13:52:54.930Z,1.24
2022-11-20T13:55:38.854Z,1.26
2022-11-20T13:58:14.224Z,1.07
2022-11-20T14:00:58.088Z,1.05
2022-11-20T14:03:58.481Z,1.08
2022-11-20T14:06:22.829Z,1.13
2022-11-20T14:08:49.650Z,1.23
2022-11-20T14:11:25.281Z,1.27
2022-11-20T14:14:14.075Z,1.36
2022-11-20T14:16:40.661Z,1.44
2022-11-20T14:19:22.262Z,1.34
2022-11-20T14:21:56.097Z,1.08
2022-11-20T14:24:24.932Z,1.15
2022-11-20T14:26:52.854Z,1.26
2022-11-20T14:29:27.870Z,1.24
2022-11-20T14:31:56.563Z,1.29
2022-11-20T14:34:26.150Z,1.12
2022-11-20T14:36:58.091Z,1.11
2022-11-20T14:39:32.182Z,1.10
2022-11-20T14:41:58.510Z,1.14
2022-11-20T14:44:30.144Z,1.12
2022-11-20T14:46:57.860Z,1.05
2022-11-20T14:49:25.530Z,0.98
2022-11-20T14:52:15.422Z,1.04
2022-11-20T14:54:56.476Z,1.09
2022-11-20T14:57:24.680Z,1.04
2022-11-20T14:59:50.994Z,1.02
2022-11-20T15:02:17.701Z,1.10
2022-11-20T15:04:52.126Z,1.08
2022-11-20T15:07:34.963Z,1.01
2022-11-20T15:10:27.777Z,0.98
2022-11-20T15:12:57.747Z,1.03
2022-11-20T15:15:40.187Z,1.00
2022-11-20T15:18:15.875Z,1.05
2022-11-20T15:20:43.179Z,1.06
2022-11-20T15:23:14.861Z,1.11
2022-11-20T15:25:42.099Z,1.16
2022-11-20T15:28:17.884Z,0.96
2022-11-20T15:30:45.153Z,0.94
2022-11-20T15:33:11.572Z,0.83
2022-11-20T15:35:37.854Z,0.86
2022-11-20T15:38:04.230Z,0.79
2022-11-20T15:40:30.531Z,0.83
2022-11-20T15:43:12.620Z,0.89
2022-11-20T15:45:43.709Z,0.93
2022-11-20T15:48:13.133Z,0.91
2022-11-20T15:50:47.199Z,0.90
2022-11-20T15:53:13.601Z,0.83
2022-11-20T15:55:39.953Z,0.89
2022-11-20T15:58:06.287Z,0.97
2022-11-20T16:00:32.626Z,0.76
2022-11-20T16:02:59.219Z,0.83
2022-11-20T16:05:29.321Z,0.85
2022-11-20T16:07:55.704Z,0.91
2022-11-20T16:10:22.357Z,0.99
2022-11-20T16:13:07.284Z,0.86
2022-11-20T16:15:46.208Z,0.85
2022-11-20T16:18:15.917Z,0.80
2022-11-20T16:20:42.745Z,0.88
2022-11-20T16:23:09.063Z,1.07
2022-11-20T16:25:35.425Z,1.06
2022-11-20T16:28:01.988Z,0.99
2022-11-20T16:30:28.354Z,0.95
2022-11-20T16:32:54.697Z,0.97
2022-11-20T16:35:20.997Z,0.89
2022-11-20T16:37:47.555Z,0.96
2022-11-20T16:40:14.095Z,1.03
2022-11-20T16:42:40.503Z,1.09
2022-11-20T16:45:07.227Z,1.17
2022-11-20T16:47:35.120Z,1.13
2022-11-20T16:50:02.459Z,1.07
2022-11-20T16:52:29.831Z,1.20
2022-11-20T16:54:56.096Z,1.23
2022-11-20T16:57:22.516Z,1.14
2022-11-20T16:59:49.345Z,0.97
2022-11-20T17:02:16.375Z,0.88
2022-11-20T17:04:42.676Z,0.95
2022-11-20T17:07:09.076Z,0.93
2022-11-20T17:09:35.522Z,0.90
2022-11-20T17:12:01.817Z,0.89
2022-11-20T17:14:28.165Z,0.84
2022-11-20T17:16:54.483Z,0.86
2022-11-20T17:19:20.848Z,0.90
2022-11-20T17:21:47.316Z,0.86
2022-11-20T17:24:13.764Z,0.95
2022-11-20T17:26:41.869Z,0.94
2022-11-20T17:29:10.052Z,0.96
2022-11-20T17:31:38.531Z,0.94
2022-11-20T17:34:06.272Z,1.00
2022-11-20T17:36:32.867Z,1.03
2022-11-20T17:38:59.554Z,0.83
2022-11-20T17:41:27.948Z,0.83
2022-11-20T17:43:56.568Z,0.77
2022-11-20T17:46:27.984Z,0.82
2022-11-20T17:48:55.354Z,0.73
2022-11-20T17:51:27.676Z,0.74
2022-11-20T17:54:00.661Z,0.66
2022-11-20T17:56:50.072Z,0.74
2022-11-20T17:59:18.354Z,0.63
2022-11-20T18:01:44.796Z,0.62
2022-11-20T18:04:11.772Z,0.60
2022-11-20T18:06:38.803Z,0.55
2022-11-20T18:09:06.676Z,0.56
2022-11-20T18:11:35.514Z,0.48
2022-11-20T18:14:22.930Z,0.54
2022-11-20T18:16:57.928Z,0.52
2022-11-20T18:19:31.969Z,0.46
2022-11-20T18:22:01.160Z,0.48
2022-11-20T18:24:27.578Z,0.39
2022-11-20T18:26:53.886Z,0.41
2022-11-20T18:29:20.353Z,0.36
2022-11-20T18:31:46.675Z,0.37
2022-11-20T18:34:14.039Z,0.38
2022-11-20T18:36:42.112Z,0.36
2022-11-20T18:39:10.391Z,0.41
2022-11-20T18:41:55.475Z,0.34
2022-11-20T18:44:43.166Z,0.27
2022-11-20T18:47:14.884Z,0.20
2022-11-20T18:49:51.659Z,0.18
2022-11-20T18:52:26.665Z,0.15
2022-11-20T18:54:53.513Z,0.13
2022-11-20T18:57:22.178Z,0.13
2022-11-20T18:59:48.533Z,0.12
2022-11-20T19:02:17.451Z,0.17
2022-11-20T19:04:43.803Z,0.12
2022-11-20T19:07:13.588Z,0.22
2022-11-20T19:09:41.684Z,0.15
2022-11-20T19:12:09.547Z,0.17
2022-11-20T19:14:35.894Z,0.07
2022-11-20T19:17:03.382Z,0.02
2022-11-20T19:19:29.965Z,-0.04
2022-11-20T19:21:56.245Z,0.05
2022-11-20T19:24:23.046Z,0.01
2022-11-20T19:26:49.384Z,-0.05
2022-11-20T19:29:16.551Z,0.01
2022-11-20T19:31:42.969Z,-0.01
2022-11-20T19:34:09.830Z,0.04
2022-11-20T19:36:43.225Z,0.10
2022-11-20T19:39:11.713Z,0.07
2022-11-20T19:41:39.839Z,0.09
2022-11-20T19:44:12.399Z,0.05
2022-11-20T19:46:39.434Z,0.08
2022-11-20T19:49:09.924Z,0.06
2022-11-20T19:51:38.492Z,-0.01
2022-11-20T19:54:06.223Z,-0.01
2022-11-20T19:56:33.941Z,-0.04
2022-11-20T19:59:01.102Z,-0.05
2022-11-20T20:01:30.006Z,-0.11
2022-11-20T20:04:02.385Z,-0.19
2022-11-20T20:06:29.391Z,-0.24
2022-11-20T20:09:01.207Z,-0.23
2022-11-20T20:11:30.318Z,-0.36
2022-11-20T20:13:58.884Z,-0.38
2022-11-20T20:16:26.473Z,-0.38
2022-11-20T20:18:57.810Z,-0.35
2022-11-20T20:21:24.318Z,-0.42
2022-11-20T20:23:55.495Z,-0.57
2022-11-20T20:26:24.028Z,-0.65
2022-11-20T20:28:50.867Z,-0.67
2022-11-20T20:31:20.048Z,-0.78
2022-11-20T20:33:46.713Z,-0.83
2022-11-20T20:36:15.257Z,-0.89
2022-11-20T20:38:43.243Z,-0.88
2022-11-20T20:41:09.977Z,-0.88
2022-11-20T20:43:55.836Z,-0.80
2022-11-20T20:46:22.595Z,-0.81
2022-11-20T20:48:54.205Z,-0.96
2022-11-20T20:51:21.346Z,-1.06
2022-11-20T20:53:47.649Z,-1.10
2022-11-20T20:56:14.570Z,-1.09
2022-11-20T20:58:41.381Z,-1.22
2022-11-20T21:01:11.031Z,-1.27
2022-11-20T21:03:37.471Z,-1.28
2022-11-20T21:06:05.665Z,-1.29
2022-11-20T21:08:32.395Z,-1.31
2022-11-20T21:11:16.366Z,-1.35
2022-11-20T21:13:44.286Z,-1.35
2022-11-20T21:16:11.813Z,-1.31
2022-11-20T21:18:38.112Z,-1.38
2022-11-20T21:21:27.840Z,-1.29
2022-11-20T21:23:54.121Z,-1.46
2022-11-20T21:26:21.179Z,-1.46
2022-11-20T21:28:47.999Z,-1.40
2022-11-20T21:31:18.433Z,-1.42
2022-11-20T21:33:50.315Z,-1.44
2022-11-20T21:36:19.291Z,-1.48
2022-11-20T21:38:46.645Z,-1.53
2022-11-20T21:41:14.479Z,-1.62
2022-11-20T21:43:42.495Z,-1.68
2022-11-20T21:46:11.325Z,-1.68
2022-11-20T21:48:42.111Z,-1.67
2022-11-20T21:51:08.391Z,-1.62
2022-11-20T21:53:34.955Z,-1.77
2022-11-20T21:56:04.029Z,-1.88
2022-11-20T21:58:30.705Z,-2.01
2022-11-20T22:00:57.173Z,-2.06
2022-11-20T22:03:23.585Z,-2.11
2022-11-20T22:05:56.959Z,-2.08
2022-11-20T22:08:24.853Z,-2.11
2022-11-20T22:10:59.194Z,-2.15
2022-11-20T22:13:45.154Z,-2.23
2022-11-20T22:16:11.871Z,-2.15
2022-11-20T22:18:57.905Z,-2.16
2022-11-20T22:21:26.818Z,-2.21
2022-11-20T22:23:54.103Z,-2.22
2022-11-20T22:26:23.592Z,-2.24
2022-11-20T22:28:52.242Z,-2.25
2022-11-20T22:31:20.604Z,-2.22
2022-11-20T22:33:47.495Z,-2.19
2022-11-20T22:36:16.585Z,-2.24
2022-11-20T22:38:43.358Z,-2.25
2022-11-20T22:41:18.041Z,-2.17
2022-11-20T22:43:45.219Z,-2.21
2022-11-20T22:46:14.383Z,-2.27
2022-11-20T22:48:42.771Z,-2.30
2022-11-20T22:51:12.713Z,-2.32
2022-11-20T22:53:40.511Z,-2.32
2022-11-20T22:56:08.363Z,-2.28
2022-11-20T22:58:37.186Z,-2.24
2022-11-20T23:01:10.833Z,-2.28
2022-11-20T23:03:39.062Z,-2.28
2022-11-20T23:06:06.166Z,-2.26
2022-11-20T23:08:33.357Z,-2.32
2022-11-20T23:11:04.531Z,-2.26
2022-11-20T23:13:31.042Z,-2.32
2022-11-20T23:16:08.925Z,-2.32
2022-11-20T23:18:35.974Z,-2.29
2022-11-20T23:21:11.350Z,-2.39
2022-11-20T23:23:38.277Z,-2.35
2022-11-20T23:26:06.913Z,-2.38
2022-11-20T23:28:33.840Z,-2.32
2022-11-20T23:31:00.932Z,-2.35
2022-11-20T23:33:27.459Z,-2.30
2022-11-20T23:35:53.833Z,-2.18
2022-11-20T23:38:20.137Z,-2.13
2022-11-20T23:40:48.253Z,-2.19
2022-11-20T23:43:16.200Z,-2.24
2022-11-20T23:45:44.524Z,-2.29
2022-11-20T23:48:10.968Z,-2.27
2022-11-20T23:50:37.662Z,-2.21
2022-11-20T23:53:04.332Z,-2.23
2022-11-20T23:55:30.740Z,-2.25
2022-11-20T23:57:57.332Z,-2.32
